Etusivu
METAR-TAF:

METAR-TAF

Lentoasemat :

Halmstad, Ruotsi

Leveyspiiri: 56-41N, Pituuspiiri: 012-50E, korkeus merenpinnasta: 30 m

Tämänhetkinen sää

Tämä raportti tehtiin 36 minuuttia sitten, kello 09.50 UTC
Lämpötila 0°C
Kosteus 100%
Ilmanpaine 1028 hPa
Näkyvyys 10 km tai enemmän

METAR: ESMT 280950Z AUTO /////KT 9999 OVC005/// M00/M00 Q1028

Aika: 11:26 (10:26 UTC)

Sääennuste

Tämä raportti tehtiin 20 tuntia ja 7 minuuttia sitten, kello 14.19 UTC
Ennuste voimassa 27. päivästä klo 15 UTC - 27. päivään klo 17 UTC
Tuuli 4 kn idästä
Näkyvyys: 0100 m
100 ft:n korkeudessa
jäätävää sumua
Todennäköisyys 40%
27. päivästä klo 15 UTC - 27. päivään klo 17 UTC
Näkyvyys: 1200 m
Hajonneita pilviä 300 ft:n korkeudessa
utua

TAF: ESMT 271419Z 2715/2717 10004KT 0100 FZFG VV001 PROB40 2715/2717 1200 BR BKN003

Säähavainnot ja -ennusteet yli 4000 lentoasemalta (METAR- ja TAF-raportit).

Käytössä olevat sääasemat on merkitty karttaan keltaisilla ja punaisilla pisteillä.

Aseta hiiri pisteen päälle nähdäksesi sääaseman nimen.

Klikkaa sitten nähdäksesi säähavainnot ja -ennusteet.

Kartan vaihtaminen: klikkaa mustalla rastilla varustettuja vihreitä pisteitä, niin voit zoomata sisään; viivalla varustettua vihreää pistettä, niin voit zoomata ulos tai vihreitä nuolia, niin pääset viereisille kartoille.


METAR-TAF: